Tokyo Triumph — 9V3477 — position and weather

sailwx.info

Track history (hours):
 
Tides and Currents Weather Stations Pressure Air Temp Water Temp Dewpoint Dewpoint Depression Visibility Wind Speed Wind Dir Waves Ship Positions

Tokyo Triumph

Last reported at 2017-Sep-19 13:56 UTC. Time now 2017-Sep-21 12:34 UTC.
Position N 01°13' E 103°57'.

Length 365 m; draft 14.6 m.

Type: Cargo ship. MMSI: 563020400.

Date/timePositionNaut miles runAvg speedWind from/ knotsBaromVisibWave heightAir tempDewpointWater temp
2017-Sep-19 13:56N 01°13' E 103°57'2 3.9
2017-Sep-19 13:30N 01°13' E 103°56'2 3.7
2017-Sep-19 13:00N 01°12' E 103°54'2 3.4
2017-Sep-19 12:30N 01°12' E 103°53'2 3.6
2017-Sep-19 12:00N 01°11' E 103°51'15 1.8
2017-Sep-19 03:49N 01°15' E 104°05'619.3
2017-Sep-19 03:31N 01°14' E 103°59'816.4
2017-Sep-19 03:00N 01°11' E 103°51'714.3
2017-Sep-19 02:30N 01°07' E 103°45'714.7
2017-Sep-19 02:00N 01°03' E 103°40'918.7
2017-Sep-19 01:30N 01°07' E 103°31'1020.0
2017-Sep-19 00:59N 01°13' E 103°23'1122.4
2017-Sep-19 00:29N 01°20' E 103°14'  
Track history (hours):
 
Tides and Currents Weather Stations Pressure Air Temp Water Temp Dewpoint Dewpoint Depression Visibility Wind Speed Wind Dir Waves Ship Positions

Tokyo Triumph

Last reported at 2017-Sep-19 13:56 UTC. Time now 2017-Sep-21 12:34 UTC.
Position N 01°13' E 103°57'.

Length 365 m; draft 14.6 m.

Type: Cargo ship. MMSI: 563020400.

Date/timePositionNaut miles runAvg speedWind from/ knotsBaromVisibWave heightAir tempDewpointWater temp
2017-Sep-19 13:56N 01°13' E 103°57'2 3.9
2017-Sep-19 13:30N 01°13' E 103°56'2 3.7
2017-Sep-19 13:00N 01°12' E 103°54'2 3.4
2017-Sep-19 12:30N 01°12' E 103°53'2 3.6
2017-Sep-19 12:00N 01°11' E 103°51'15 1.8
2017-Sep-19 03:49N 01°15' E 104°05'619.3
2017-Sep-19 03:31N 01°14' E 103°59'816.4
2017-Sep-19 03:00N 01°11' E 103°51'714.3
2017-Sep-19 02:30N 01°07' E 103°45'714.7
2017-Sep-19 02:00N 01°03' E 103°40'918.7
2017-Sep-19 01:30N 01°07' E 103°31'1020.0
2017-Sep-19 00:59N 01°13' E 103°23'1122.4
2017-Sep-19 00:29N 01°20' E 103°14'  

Dump ship's entire track history